Hauptseite
METAR-TAF:

METAR-TAF

Flughäfen :

Philip S. W. Goldson International Airport

Belize City, Belize

Breite: 17-32N, Länge: 088-18W, Höhe: 5 m

Beobachtung

Neuester Wetterbericht von vor 1 Stunde und 44 Minuten, um 01:00 UTC
Wind 5 kt aus Ost
Temperatur 28°C
Luftfeuchtigkeit 74%
Luftdruck 1014 hPa
Sichtweite 10 km oder mehr
Aufgelockert bewölkt in der Höhe von 1800 ft

METAR: MZBZ 230100Z 09005KT 9999 SCT018 28/23 A2995 Q1014 NOSIG

Zeit: 20:44 (02:44 UTC)

Prognose

Neuester Wetterbericht von vor 5 Stunden und 44 Minuten, um 21:00 UTC
Gültige Prognose vom 23 um 00 UTC bis 23 um 24 UTC
Wind 10 kt aus Ost
Sichtweite 10 km oder mehr
Aufgelockert bewölkt in der Höhe von 2400 ft

TAF: MZBZ 222100Z 2300/2324 09010KT 9999 SCT024

Wetterbeobachtungen und Prognosen von mehr als 4000 Flughäfen (METAR und TAF Bericht).

Die verfügbaren Stationen werden durch gelbe und rote Markierungen auf der Karte dargestellt.

Führen Sie die Maus auf sie, um den Namen der Station zu sehen.

Darauf klicken, um die Beobachtung von Wetterbeobachtungen und Prognosen zu sehen.

Um die Karte zu ändern : klicken Sie auf den grünen Tasten mit einem schwarzen Kreuz Zum Vergrößern, auf den grünen Button mit einem Gedankenstrich zu verkleinern, oder auf die grünen Pfeile für benachbarte Karten.


METAR-TAF: